createdAt,value
2022-08-14T00:00:10.887Z,24.70
2022-08-14T00:02:45.008Z,24.70
2022-08-14T00:05:26.713Z,24.64
2022-08-14T00:07:57.491Z,24.64
2022-08-14T00:10:53.031Z,24.61
2022-08-14T00:13:00.339Z,24.60
2022-08-14T00:15:43.744Z,24.61
2022-08-14T00:18:09.026Z,24.61
2022-08-14T00:20:43.383Z,24.56
2022-08-14T00:23:17.035Z,24.42
2022-08-14T00:25:53.941Z,24.42
2022-08-14T00:28:22.705Z,24.45
2022-08-14T00:31:13.574Z,24.42
2022-08-14T00:33:51.697Z,24.37
2022-08-14T00:36:36.597Z,24.39
2022-08-14T00:38:48.817Z,24.39
2022-08-14T00:41:19.196Z,24.38
2022-08-14T00:43:51.419Z,24.41
2022-08-14T00:46:32.871Z,24.41
2022-08-14T00:48:53.605Z,24.31
2022-08-14T00:51:24.430Z,24.31
2022-08-14T00:53:56.471Z,24.22
2022-08-14T00:56:31.258Z,24.20
2022-08-14T00:58:59.143Z,24.15
2022-08-14T01:01:29.861Z,24.15
2022-08-14T01:04:02.098Z,24.04
2022-08-14T01:06:34.472Z,24.07
2022-08-14T01:09:05.102Z,24.04
2022-08-14T01:11:38.471Z,24.04
2022-08-14T01:14:25.846Z,23.99
2022-08-14T01:16:42.791Z,23.86
2022-08-14T01:19:15.731Z,23.86
2022-08-14T01:21:46.774Z,23.61
2022-08-14T01:24:30.259Z,23.61
2022-08-14T01:26:50.840Z,23.49
2022-08-14T01:29:35.147Z,23.45
2022-08-14T01:31:53.539Z,23.33
2022-08-14T01:35:17.179Z,23.33
2022-08-14T01:36:56.753Z,23.54
2022-08-14T01:39:27.252Z,23.44
2022-08-14T01:41:59.217Z,23.56
2022-08-14T01:44:33.157Z,23.51
2022-08-14T01:47:05.939Z,23.51
2022-08-14T01:49:46.063Z,23.54
2022-08-14T01:52:13.274Z,23.54
2022-08-14T01:54:41.157Z,23.55
2022-08-14T01:57:13.137Z,23.57
2022-08-14T01:59:43.830Z,23.53
2022-08-14T02:02:14.691Z,23.51
2022-08-14T02:04:55.773Z,23.40
2022-08-14T02:07:34.950Z,23.40
2022-08-14T02:09:55.810Z,23.41
2022-08-14T02:12:26.313Z,23.41
2022-08-14T02:15:00.320Z,23.32
2022-08-14T02:17:27.280Z,23.40
2022-08-14T02:19:57.918Z,23.36
2022-08-14T02:22:32.667Z,23.30
2022-08-14T02:25:01.750Z,23.30
2022-08-14T02:28:24.891Z,23.09
2022-08-14T02:30:05.971Z,23.29
2022-08-14T02:32:38.017Z,23.23
2022-08-14T02:35:11.022Z,23.10
2022-08-14T02:37:47.216Z,23.21
2022-08-14T02:40:13.270Z,23.21
2022-08-14T02:42:54.649Z,23.17
2022-08-14T02:45:15.601Z,23.09
2022-08-14T02:47:47.732Z,23.09
2022-08-14T02:50:19.553Z,22.97
2022-08-14T02:52:57.719Z,23.07
2022-08-14T02:55:21.914Z,22.79
2022-08-14T02:58:02.913Z,22.69
2022-08-14T03:00:24.685Z,22.70
2022-08-14T03:02:59.114Z,22.73
2022-08-14T03:05:28.088Z,22.64
2022-08-14T03:08:34.064Z,22.64
2022-08-14T03:11:07.617Z,22.63
2022-08-14T03:13:41.321Z,22.57
2022-08-14T03:16:19.766Z,22.49
2022-08-14T03:18:52.328Z,22.49
2022-08-14T03:21:23.993Z,22.59
2022-08-14T03:23:55.129Z,22.53
2022-08-14T03:26:29.844Z,22.49
2022-08-14T03:29:01.191Z,22.63
2022-08-14T03:31:30.751Z,22.74
2022-08-14T03:34:02.592Z,22.66
2022-08-14T03:37:37.850Z,23.05
2022-08-14T03:39:10.842Z,23.05
2022-08-14T03:41:40.083Z,23.06
2022-08-14T03:45:25.403Z,23.06
2022-08-14T03:46:54.899Z,22.96
2022-08-14T03:49:16.392Z,22.92
2022-08-14T03:51:48.468Z,23.19
2022-08-14T03:54:20.578Z,23.29
2022-08-14T03:56:51.136Z,23.30
2022-08-14T03:59:23.292Z,23.30
2022-08-14T04:01:58.094Z,23.21
2022-08-14T04:04:25.739Z,23.21
2022-08-14T04:06:58.737Z,23.16
2022-08-14T04:09:28.380Z,23.16
2022-08-14T04:12:00.065Z,23.43
2022-08-14T04:14:32.089Z,23.54
2022-08-14T04:17:10.156Z,23.59
2022-08-14T04:19:39.924Z,23.36
2022-08-14T04:22:12.155Z,23.51
2022-08-14T04:24:44.277Z,23.51
2022-08-14T04:27:16.772Z,23.63
2022-08-14T04:29:47.533Z,23.50
2022-08-14T04:32:57.475Z,23.67
2022-08-14T04:34:52.121Z,23.71
2022-08-14T04:37:53.671Z,24.03
2022-08-14T04:40:18.587Z,24.03
2022-08-14T04:42:51.577Z,23.94
2022-08-14T04:45:23.247Z,23.94
2022-08-14T04:47:54.124Z,24.16
2022-08-14T04:50:33.678Z,24.21
2022-08-14T04:52:56.663Z,24.37
2022-08-14T04:55:27.783Z,24.37
2022-08-14T04:57:58.315Z,24.48
2022-08-14T05:00:29.323Z,24.48
2022-08-14T05:03:01.132Z,24.62
2022-08-14T05:05:32.343Z,24.53
2022-08-14T05:08:09.662Z,24.53
2022-08-14T05:10:44.262Z,24.69
2022-08-14T05:13:15.844Z,24.69
2022-08-14T05:15:47.944Z,24.83
2022-08-14T05:19:16.870Z,24.82
2022-08-14T05:21:54.740Z,24.85
2022-08-14T05:23:29.568Z,25.06
2022-08-14T05:26:17.556Z,25.10
2022-08-14T05:28:48.598Z,25.22
2022-08-14T05:31:20.689Z,25.24
2022-08-14T05:33:56.947Z,25.24
2022-08-14T05:36:24.106Z,25.30
2022-08-14T05:38:55.404Z,25.30
2022-08-14T05:41:27.721Z,25.14
2022-08-14T05:43:57.857Z,25.14
2022-08-14T05:46:28.154Z,25.16
2022-08-14T05:48:59.760Z,25.04
2022-08-14T05:51:30.623Z,24.97
2022-08-14T05:54:11.342Z,24.97
2022-08-14T05:56:33.187Z,24.85
2022-08-14T05:59:05.548Z,24.68
2022-08-14T06:01:40.392Z,24.51
2022-08-14T06:04:10.870Z,23.99
2022-08-14T06:06:43.005Z,22.59
2022-08-14T06:09:13.503Z,22.59
2022-08-14T06:11:44.134Z,22.47
2022-08-14T06:14:20.802Z,22.47
2022-08-14T06:16:48.752Z,22.44
2022-08-14T06:19:19.220Z,22.23
2022-08-14T06:21:53.245Z,22.00
2022-08-14T06:24:22.007Z,22.00
2022-08-14T06:26:54.244Z,21.79
2022-08-14T06:29:25.858Z,21.31
2022-08-14T06:32:00.442Z,21.31
2022-08-14T06:35:03.395Z,21.26
2022-08-14T06:37:04.635Z,21.33
2022-08-14T06:39:36.364Z,21.33
2022-08-14T06:42:07.137Z,21.53
2022-08-14T06:44:38.735Z,21.68
2022-08-14T06:47:09.100Z,21.68
2022-08-14T06:49:40.588Z,21.79
2022-08-14T06:52:15.140Z,21.99
2022-08-14T06:55:05.212Z,22.16
2022-08-14T06:57:40.676Z,22.31
2022-08-14T07:00:22.223Z,22.31
2022-08-14T07:02:47.833Z,22.40
2022-08-14T07:05:23.230Z,22.63
2022-08-14T07:07:51.083Z,22.71
2022-08-14T07:10:21.492Z,22.81
2022-08-14T07:13:01.754Z,22.81
2022-08-14T07:15:23.983Z,22.90
2022-08-14T07:17:56.235Z,22.90
2022-08-14T07:20:31.006Z,23.17
2022-08-14T07:23:08.559Z,23.29
2022-08-14T07:25:40.088Z,23.29
2022-08-14T07:28:21.679Z,23.43
2022-08-14T07:30:53.948Z,23.43
2022-08-14T07:33:29.996Z,23.56
2022-08-14T07:36:02.510Z,23.56
2022-08-14T07:38:38.033Z,23.86
2022-08-14T07:41:14.483Z,24.05
2022-08-14T07:43:40.914Z,24.05
2022-08-14T07:46:15.440Z,24.49
2022-08-14T07:48:48.073Z,24.49
2022-08-14T07:51:23.228Z,24.96
2022-08-14T07:53:57.195Z,24.96
2022-08-14T07:56:47.134Z,25.12
2022-08-14T07:59:01.157Z,25.33
2022-08-14T08:01:31.908Z,25.57
2022-08-14T08:04:04.215Z,25.67
2022-08-14T08:06:37.033Z,25.84
2022-08-14T08:09:10.392Z,25.80
2022-08-14T08:11:42.687Z,25.91
2022-08-14T08:14:17.511Z,25.85
2022-08-14T08:16:51.236Z,25.85
2022-08-14T08:19:22.864Z,25.93
2022-08-14T08:21:53.246Z,25.83
2022-08-14T08:24:24.704Z,25.83
2022-08-14T08:26:56.602Z,25.83
2022-08-14T08:29:28.985Z,25.96
2022-08-14T08:32:01.633Z,26.20
2022-08-14T08:34:32.396Z,26.20
2022-08-14T08:37:07.352Z,26.23
2022-08-14T08:40:03.324Z,26.31
2022-08-14T08:42:38.329Z,26.49
2022-08-14T08:45:12.002Z,26.49
2022-08-14T08:47:43.681Z,26.20
2022-08-14T08:50:31.698Z,26.40
2022-08-14T08:52:57.736Z,26.35
2022-08-14T08:55:29.984Z,26.45
2022-08-14T08:58:12.514Z,26.47
2022-08-14T09:00:40.196Z,26.47
2022-08-14T09:03:15.728Z,26.58
2022-08-14T09:06:54.446Z,27.17
2022-08-14T09:08:49.152Z,27.17
2022-08-14T09:11:21.148Z,27.88
2022-08-14T09:14:14.043Z,28.14
2022-08-14T09:16:50.518Z,28.36
2022-08-14T09:19:21.191Z,28.36
2022-08-14T09:21:54.897Z,28.93
2022-08-14T09:24:29.502Z,28.93
2022-08-14T09:26:57.380Z,29.53
2022-08-14T09:29:28.755Z,29.53
2022-08-14T09:32:02.973Z,30.50
2022-08-14T09:34:59.103Z,30.91
2022-08-14T09:38:00.589Z,30.96
2022-08-14T09:40:49.808Z,30.96
2022-08-14T09:43:43.799Z,31.06
2022-08-14T09:46:17.029Z,30.59
2022-08-14T09:48:46.452Z,30.66
2022-08-14T09:51:25.352Z,31.32
2022-08-14T09:54:19.524Z,31.32
2022-08-14T09:56:56.594Z,32.43
2022-08-14T09:59:22.973Z,32.43
2022-08-14T10:01:53.633Z,33.37
2022-08-14T10:04:33.461Z,33.08
2022-08-14T10:06:58.822Z,33.08
2022-08-14T10:09:29.405Z,34.37
2022-08-14T10:12:01.389Z,35.12
2022-08-14T10:14:36.861Z,35.12
2022-08-14T10:17:08.459Z,35.17
2022-08-14T10:19:42.148Z,34.41
2022-08-14T10:23:13.150Z,34.69
2022-08-14T10:24:46.471Z,34.69
2022-08-14T10:27:20.782Z,34.95
2022-08-14T10:29:58.373Z,35.31
2022-08-14T10:32:41.887Z,35.31
2022-08-14T10:35:14.615Z,35.97
2022-08-14T10:38:03.710Z,35.99
2022-08-14T10:40:44.716Z,35.99
2022-08-14T10:43:23.029Z,35.88
2022-08-14T10:46:03.684Z,36.42
2022-08-14T10:48:36.627Z,36.79
2022-08-14T10:51:01.822Z,36.86
2022-08-14T10:53:39.225Z,36.83
2022-08-14T10:56:34.136Z,36.87
2022-08-14T10:59:07.050Z,37.16
2022-08-14T11:01:41.226Z,37.44
2022-08-14T11:04:25.092Z,37.70
2022-08-14T11:06:56.460Z,37.70
2022-08-14T11:09:31.758Z,37.16
2022-08-14T11:12:33.928Z,37.04
2022-08-14T11:14:30.743Z,36.72
2022-08-14T11:17:02.532Z,35.61
2022-08-14T11:19:38.693Z,35.24
2022-08-14T11:22:15.521Z,35.24
2022-08-14T11:24:53.844Z,34.74
2022-08-14T11:27:21.535Z,34.74
2022-08-14T11:30:00.302Z,33.90
2022-08-14T11:32:28.432Z,33.90
2022-08-14T11:35:01.245Z,33.68
2022-08-14T11:37:40.415Z,33.08
2022-08-14T11:40:05.393Z,32.54
2022-08-14T11:42:58.307Z,32.54
2022-08-14T11:45:11.498Z,32.34
2022-08-14T11:47:43.929Z,32.36
2022-08-14T11:50:33.812Z,32.27
2022-08-14T11:52:53.756Z,32.27
2022-08-14T11:55:26.900Z,32.37
2022-08-14T11:58:05.536Z,32.59
2022-08-14T12:00:52.585Z,33.17
2022-08-14T12:03:26.920Z,33.63
2022-08-14T12:06:05.996Z,33.88
2022-08-14T12:08:38.845Z,33.86
2022-08-14T12:11:12.109Z,33.27
2022-08-14T12:13:44.386Z,33.27
2022-08-14T12:16:20.595Z,33.19
2022-08-14T12:18:49.574Z,33.19
2022-08-14T12:21:22.638Z,33.55
2022-08-14T12:24:01.978Z,34.11
2022-08-14T12:26:40.783Z,34.11
2022-08-14T12:29:13.660Z,33.73
2022-08-14T12:31:46.994Z,34.17
2022-08-14T12:34:20.100Z,34.12
2022-08-14T12:36:49.696Z,34.12
2022-08-14T12:39:22.264Z,33.90
2022-08-14T12:41:57.109Z,33.60
2022-08-14T12:44:39.172Z,33.41
2022-08-14T12:47:13.595Z,32.99
2022-08-14T12:50:10.395Z,32.99
2022-08-14T12:53:01.994Z,32.80
2022-08-14T12:55:18.844Z,33.05
2022-08-14T12:57:53.517Z,33.05
2022-08-14T13:00:24.967Z,33.55
2022-08-14T13:02:56.572Z,35.24
2022-08-14T13:05:29.310Z,35.24
2022-08-14T13:08:01.925Z,35.03
2022-08-14T13:10:47.518Z,36.05
2022-08-14T13:13:15.708Z,36.62
2022-08-14T13:15:43.035Z,34.87
2022-08-14T13:18:17.720Z,34.05
2022-08-14T13:20:52.142Z,34.19
2022-08-14T13:23:31.652Z,34.19
2022-08-14T13:25:56.815Z,34.14
2022-08-14T13:28:33.009Z,34.83
2022-08-14T13:31:01.774Z,34.61
2022-08-14T13:33:34.033Z,33.54
2022-08-14T13:36:06.460Z,33.54
2022-08-14T13:38:39.536Z,33.20
2022-08-14T13:41:12.427Z,32.83
2022-08-14T13:43:49.276Z,32.83
2022-08-14T13:46:18.022Z,32.07
2022-08-14T13:48:48.951Z,32.20
2022-08-14T13:51:24.166Z,31.88
2022-08-14T13:54:09.927Z,31.38
2022-08-14T13:56:36.746Z,31.38
2022-08-14T13:59:05.611Z,31.30
2022-08-14T14:01:43.812Z,30.45
2022-08-14T14:04:32.157Z,30.30
2022-08-14T14:07:04.404Z,29.48
2022-08-14T14:09:52.552Z,29.48
2022-08-14T14:12:36.514Z,29.41
2022-08-14T14:14:51.718Z,29.05
2022-08-14T14:17:18.627Z,28.81
2022-08-14T14:19:49.146Z,28.69
2022-08-14T14:23:01.826Z,28.56
2022-08-14T14:24:53.455Z,28.56
2022-08-14T14:27:40.745Z,28.45
2022-08-14T14:30:01.321Z,28.57
2022-08-14T14:32:36.299Z,28.58
2022-08-14T14:35:17.881Z,28.62
2022-08-14T14:37:48.911Z,28.63
2022-08-14T14:40:53.979Z,28.63
2022-08-14T14:42:53.308Z,28.39
2022-08-14T14:45:25.927Z,28.39
2022-08-14T14:47:59.042Z,28.17
2022-08-14T14:50:28.789Z,28.35
2022-08-14T14:53:12.926Z,28.35
2022-08-14T14:55:54.257Z,28.18
2022-08-14T14:58:07.178Z,27.96
2022-08-14T15:00:39.429Z,27.96
2022-08-14T15:03:11.221Z,28.01
2022-08-14T15:05:41.553Z,28.00
2022-08-14T15:08:17.126Z,28.01
2022-08-14T15:10:44.337Z,28.01
2022-08-14T15:13:16.294Z,28.01
2022-08-14T15:15:46.656Z,28.01
2022-08-14T15:18:37.898Z,28.13
2022-08-14T15:20:50.735Z,28.13
2022-08-14T15:23:22.227Z,28.29
2022-08-14T15:25:53.521Z,28.45
2022-08-14T15:28:25.127Z,28.45
2022-08-14T15:30:59.110Z,28.44
2022-08-14T15:33:27.887Z,28.78
2022-08-14T15:36:00.149Z,28.81
2022-08-14T15:38:37.977Z,28.61
2022-08-14T15:41:05.011Z,28.61
2022-08-14T15:43:37.374Z,28.64
2022-08-14T15:46:10.593Z,28.64
2022-08-14T15:48:44.044Z,28.63
2022-08-14T15:51:14.672Z,28.68
2022-08-14T15:53:46.824Z,28.67
2022-08-14T15:56:42.043Z,28.69
2022-08-14T15:58:52.583Z,28.65
2022-08-14T16:01:50.692Z,28.65
2022-08-14T16:03:56.753Z,28.72
2022-08-14T16:06:28.901Z,28.73
2022-08-14T16:09:07.952Z,28.73
2022-08-14T16:11:32.700Z,28.67
2022-08-14T16:14:06.866Z,28.57
2022-08-14T16:16:51.679Z,28.43
2022-08-14T16:19:09.782Z,28.43
2022-08-14T16:22:02.320Z,28.43
2022-08-14T16:24:27.053Z,28.31
2022-08-14T16:26:51.947Z,28.28
2022-08-14T16:29:18.488Z,28.15
2022-08-14T16:31:48.934Z,27.89
2022-08-14T16:34:46.346Z,27.72
2022-08-14T16:39:39.596Z,27.86
2022-08-14T16:42:40.013Z,28.06
2022-08-14T16:44:46.488Z,28.33
2022-08-14T16:47:16.901Z,28.36
2022-08-14T16:50:05.125Z,28.31
2022-08-14T16:52:25.962Z,28.31
2022-08-14T16:54:51.711Z,28.23
2022-08-14T16:57:31.612Z,28.25
2022-08-14T17:00:00.883Z,28.21
2022-08-14T17:02:40.624Z,27.99
2022-08-14T17:05:23.250Z,27.95
2022-08-14T17:08:32.343Z,27.80
2022-08-14T17:11:10.928Z,27.71
2022-08-14T17:13:58.445Z,27.71
2022-08-14T17:16:24.706Z,27.68
2022-08-14T17:21:55.420Z,27.55
2022-08-14T17:24:57.702Z,27.45
2022-08-14T17:27:18.393Z,27.33
2022-08-14T17:29:54.535Z,27.38
2022-08-14T17:32:28.255Z,27.38
2022-08-14T17:34:51.043Z,27.22
2022-08-14T17:37:55.864Z,26.97
2022-08-14T17:40:23.277Z,26.97
2022-08-14T17:43:02.117Z,26.89
2022-08-14T17:45:38.958Z,26.77
2022-08-14T17:49:14.797Z,26.71
2022-08-14T17:51:01.905Z,26.82
2022-08-14T17:53:36.678Z,26.82
2022-08-14T17:56:10.297Z,26.89
2022-08-14T17:58:42.401Z,26.90
2022-08-14T18:01:17.031Z,26.90
2022-08-14T18:03:53.524Z,27.00
2022-08-14T18:06:39.518Z,26.96
2022-08-14T18:08:58.390Z,26.98
2022-08-14T18:11:45.616Z,26.97
2022-08-14T18:14:02.096Z,26.97
2022-08-14T18:16:32.653Z,27.03
2022-08-14T18:19:04.890Z,27.03
2022-08-14T18:21:56.985Z,26.96
2022-08-14T18:24:28.299Z,26.99
2022-08-14T18:26:40.731Z,26.99
2022-08-14T18:29:15.072Z,26.97
2022-08-14T18:31:45.578Z,27.08
2022-08-14T18:34:30.785Z,27.09
2022-08-14T18:36:57.502Z,27.10
2022-08-14T18:39:30.318Z,27.10
2022-08-14T18:42:23.591Z,27.12
2022-08-14T18:44:53.397Z,27.12
2022-08-14T18:47:25.429Z,27.18
2022-08-14T18:49:58.838Z,27.18
2022-08-14T18:52:38.336Z,27.18
2022-08-14T18:55:24.269Z,27.18
2022-08-14T18:58:00.707Z,27.12
2022-08-14T19:00:33.969Z,27.15
2022-08-14T19:03:08.884Z,27.08
2022-08-14T19:05:47.854Z,27.08
2022-08-14T19:08:22.142Z,27.00
2022-08-14T19:10:57.059Z,26.64
2022-08-14T19:13:48.373Z,26.71
2022-08-14T19:16:23.558Z,26.71
2022-08-14T19:19:00.260Z,26.63
2022-08-14T19:21:33.689Z,26.58
2022-08-14T19:24:30.081Z,26.58
2022-08-14T19:26:54.566Z,26.40
2022-08-14T19:29:38.320Z,26.43
2022-08-14T19:32:03.745Z,26.32
2022-08-14T19:34:52.112Z,26.33
2022-08-14T19:37:44.775Z,26.32
2022-08-14T19:40:33.865Z,26.17
2022-08-14T19:43:09.215Z,26.17
2022-08-14T19:45:39.316Z,26.06
2022-08-14T19:48:14.055Z,26.12
2022-08-14T19:50:44.988Z,26.07
2022-08-14T19:53:18.289Z,26.17
2022-08-14T19:56:04.773Z,26.15
2022-08-14T19:58:55.375Z,26.10
2022-08-14T20:01:17.915Z,26.10
2022-08-14T20:03:59.777Z,26.24
2022-08-14T20:06:23.539Z,26.20
2022-08-14T20:10:59.135Z,26.20
2022-08-14T20:12:00.141Z,26.31
2022-08-14T20:14:20.462Z,26.41
2022-08-14T20:16:55.892Z,26.48
2022-08-14T20:19:29.142Z,26.44
2022-08-14T20:22:35.483Z,26.46
2022-08-14T20:24:41.183Z,26.46
2022-08-14T20:27:29.710Z,26.47
2022-08-14T20:30:29.763Z,26.54
2022-08-14T20:32:47.333Z,26.57
2022-08-14T20:35:41.853Z,26.61
2022-08-14T20:38:30.971Z,26.61
2022-08-14T20:40:57.924Z,26.56
2022-08-14T20:43:35.413Z,26.55
2022-08-14T20:46:21.037Z,26.62
2022-08-14T20:49:23.885Z,26.62
2022-08-14T20:51:58.718Z,26.57
2022-08-14T20:54:34.219Z,26.56
2022-08-14T20:57:10.719Z,26.54
2022-08-14T20:59:45.202Z,26.49
2022-08-14T21:02:29.743Z,26.51
2022-08-14T21:05:04.642Z,26.51
2022-08-14T21:07:39.086Z,26.51
2022-08-14T21:10:33.256Z,26.51
2022-08-14T21:13:25.943Z,26.53
2022-08-14T21:15:17.020Z,26.53
2022-08-14T21:17:48.969Z,26.57
2022-08-14T21:20:26.067Z,26.57
2022-08-14T21:22:56.645Z,26.58
2022-08-14T21:25:31.468Z,26.61
2022-08-14T21:37:10.607Z,26.41
2022-08-14T21:39:40.922Z,26.34
2022-08-14T22:00:02.009Z,26.41
2022-08-14T22:02:33.520Z,26.50
2022-08-14T22:05:04.528Z,26.41
2022-08-14T22:07:37.031Z,26.37
2022-08-14T22:10:11.564Z,26.37
2022-08-14T22:12:45.298Z,26.42
2022-08-14T22:15:17.495Z,26.33
2022-08-14T22:17:52.330Z,26.33
2022-08-14T22:20:21.175Z,26.27
2022-08-14T22:22:56.084Z,26.28
2022-08-14T22:25:33.896Z,26.29
2022-08-14T22:27:57.715Z,26.24
2022-08-14T22:30:28.379Z,26.14
2022-08-14T22:33:00.380Z,26.14
2022-08-14T22:35:31.180Z,26.05
2022-08-14T22:38:37.235Z,26.09
2022-08-14T22:41:03.487Z,26.00
2022-08-14T22:43:08.925Z,26.09
2022-08-14T22:45:40.886Z,26.08
2022-08-14T22:48:13.827Z,26.08
2022-08-14T22:50:48.947Z,26.01
2022-08-14T22:53:18.998Z,26.01
2022-08-14T22:55:52.129Z,25.97
2022-08-14T22:58:31.399Z,25.97
2022-08-14T23:00:55.898Z,25.94
2022-08-14T23:03:26.402Z,25.97
2022-08-14T23:05:59.199Z,25.85
2022-08-14T23:08:57.984Z,25.93
2022-08-14T23:11:04.133Z,25.85
2022-08-14T23:13:34.447Z,25.80
2022-08-14T23:16:09.495Z,25.80
2022-08-14T23:18:39.874Z,25.86
2022-08-14T23:21:13.743Z,25.81
2022-08-14T23:23:44.896Z,25.74
2022-08-14T23:26:47.176Z,25.73
2022-08-14T23:28:56.856Z,25.70
2022-08-14T23:31:34.141Z,25.69
2022-08-14T23:33:54.357Z,25.69
2022-08-14T23:36:28.368Z,25.67
2022-08-14T23:38:59.003Z,25.65
2022-08-14T23:41:47.045Z,25.65
2022-08-14T23:44:02.532Z,25.64
2022-08-14T23:46:34.624Z,25.67
2022-08-14T23:49:26.060Z,25.58
2022-08-14T23:51:59.789Z,25.58
2022-08-14T23:54:49.200Z,25.43
2022-08-14T23:57:03.934Z,25.39
2022-08-14T23:59:33.253Z,25.35
